sensor_id;sensor_type;location;lat;lon;timestamp;P1;durP1;ratioP1;P2;durP2;ratioP2
37069;SDS011;22984;48.862;9.320;2022-10-19T00:01:12;52.28;;;27.23;;
37069;SDS011;22984;48.862;9.320;2022-10-19T00:03:38;55.20;;;28.27;;
37069;SDS011;22984;48.862;9.320;2022-10-19T00:06:14;69.22;;;32.97;;
37069;SDS011;22984;48.862;9.320;2022-10-19T00:08:41;70.72;;;31.77;;
37069;SDS011;22984;48.862;9.320;2022-10-19T00:11:07;50.55;;;28.13;;
37069;SDS011;22984;48.862;9.320;2022-10-19T00:13:34;59.85;;;29.98;;
37069;SDS011;22984;48.862;9.320;2022-10-19T00:16:00;51.88;;;27.02;;
37069;SDS011;22984;48.862;9.320;2022-10-19T00:18:26;28.52;;;19.70;;
37069;SDS011;22984;48.862;9.320;2022-10-19T00:21:00;22.50;;;15.55;;
37069;SDS011;22984;48.862;9.320;2022-10-19T00:23:27;17.33;;;13.15;;
37069;SDS011;22984;48.862;9.320;2022-10-19T00:25:53;21.45;;;13.82;;
37069;SDS011;22984;48.862;9.320;2022-10-19T00:28:20;22.38;;;13.30;;
37069;SDS011;22984;48.862;9.320;2022-10-19T00:30:46;22.58;;;14.02;;
37069;SDS011;22984;48.862;9.320;2022-10-19T00:33:12;28.73;;;14.95;;
37069;SDS011;22984;48.862;9.320;2022-10-19T00:35:40;29.85;;;14.50;;
37069;SDS011;22984;48.862;9.320;2022-10-19T00:38:07;18.88;;;12.52;;
37069;SDS011;22984;48.862;9.320;2022-10-19T00:40:37;16.35;;;11.18;;
37069;SDS011;22984;48.862;9.320;2022-10-19T00:43:04;15.43;;;10.57;;
37069;SDS011;22984;48.862;9.320;2022-10-19T00:45:30;18.65;;;12.02;;
37069;SDS011;22984;48.862;9.320;2022-10-19T00:47:56;22.50;;;13.93;;
37069;SDS011;22984;48.862;9.320;2022-10-19T00:50:22;29.42;;;15.63;;
37069;SDS011;22984;48.862;9.320;2022-10-19T00:52:48;32.30;;;17.45;;
37069;SDS011;22984;48.862;9.320;2022-10-19T00:55:15;28.20;;;16.83;;
37069;SDS011;22984;48.862;9.320;2022-10-19T00:57:41;34.72;;;17.70;;
37069;SDS011;22984;48.862;9.320;2022-10-19T01:00:07;34.40;;;16.50;;
37069;SDS011;22984;48.862;9.320;2022-10-19T01:02:34;24.67;;;14.67;;
37069;SDS011;22984;48.862;9.320;2022-10-19T01:05:00;26.40;;;15.98;;
37069;SDS011;22984;48.862;9.320;2022-10-19T01:07:27;31.92;;;16.60;;
37069;SDS011;22984;48.862;9.320;2022-10-19T01:09:53;25.77;;;15.32;;
37069;SDS011;22984;48.862;9.320;2022-10-19T01:15:08;37.03;;;18.73;;
37069;SDS011;22984;48.862;9.320;2022-10-19T01:17:40;44.05;;;22.48;;
37069;SDS011;22984;48.862;9.320;2022-10-19T01:33:13;25.03;;;15.90;;
37069;SDS011;22984;48.862;9.320;2022-10-19T01:36:28;32.42;;;18.10;;
37069;SDS011;22984;48.862;9.320;2022-10-19T01:41:25;36.10;;;18.50;;
37069;SDS011;22984;48.862;9.320;2022-10-19T01:48:53;45.55;;;19.05;;
37069;SDS011;22984;48.862;9.320;2022-10-19T01:51:22;38.07;;;18.23;;
37069;SDS011;22984;48.862;9.320;2022-10-19T01:53:50;37.17;;;17.40;;
37069;SDS011;22984;48.862;9.320;2022-10-19T01:56:17;71.60;;;18.83;;
37069;SDS011;22984;48.862;9.320;2022-10-19T01:58:44;30.17;;;15.00;;
37069;SDS011;22984;48.862;9.320;2022-10-19T02:01:11;26.67;;;15.95;;
37069;SDS011;22984;48.862;9.320;2022-10-19T02:03:38;30.27;;;16.48;;
37069;SDS011;22984;48.862;9.320;2022-10-19T02:06:05;139.63;;;22.30;;
37069;SDS011;22984;48.862;9.320;2022-10-19T02:08:39;45.73;;;20.07;;
37069;SDS011;22984;48.862;9.320;2022-10-19T02:11:06;36.83;;;19.48;;
37069;SDS011;22984;48.862;9.320;2022-10-19T02:13:32;38.45;;;17.75;;
37069;SDS011;22984;48.862;9.320;2022-10-19T02:16:00;25.83;;;14.57;;
37069;SDS011;22984;48.862;9.320;2022-10-19T02:18:32;23.40;;;12.80;;
37069;SDS011;22984;48.862;9.320;2022-10-19T02:21:00;23.88;;;12.25;;
37069;SDS011;22984;48.862;9.320;2022-10-19T02:23:26;18.85;;;12.40;;
37069;SDS011;22984;48.862;9.320;2022-10-19T02:25:53;19.20;;;14.02;;
37069;SDS011;22984;48.862;9.320;2022-10-19T02:28:19;29.98;;;14.18;;
37069;SDS011;22984;48.862;9.320;2022-10-19T02:30:45;23.17;;;14.63;;
37069;SDS011;22984;48.862;9.320;2022-10-19T02:33:12;21.70;;;13.10;;
37069;SDS011;22984;48.862;9.320;2022-10-19T02:35:38;19.37;;;13.23;;
37069;SDS011;22984;48.862;9.320;2022-10-19T02:38:04;21.08;;;13.23;;
37069;SDS011;22984;48.862;9.320;2022-10-19T02:40:31;21.13;;;14.10;;
37069;SDS011;22984;48.862;9.320;2022-10-19T02:42:59;26.67;;;15.00;;
37069;SDS011;22984;48.862;9.320;2022-10-19T02:45:27;19.30;;;13.88;;
37069;SDS011;22984;48.862;9.320;2022-10-19T02:47:56;26.13;;;13.95;;
37069;SDS011;22984;48.862;9.320;2022-10-19T02:50:23;23.40;;;15.53;;
37069;SDS011;22984;48.862;9.320;2022-10-19T02:52:49;22.30;;;16.90;;
37069;SDS011;22984;48.862;9.320;2022-10-19T02:55:15;23.77;;;17.02;;
37069;SDS011;22984;48.862;9.320;2022-10-19T02:57:41;22.73;;;16.38;;
37069;SDS011;22984;48.862;9.320;2022-10-19T03:00:07;25.43;;;17.60;;
37069;SDS011;22984;48.862;9.320;2022-10-19T03:02:33;31.90;;;18.92;;
37069;SDS011;22984;48.862;9.320;2022-10-19T03:04:59;31.30;;;19.88;;
37069;SDS011;22984;48.862;9.320;2022-10-19T03:07:25;29.63;;;19.42;;
37069;SDS011;22984;48.862;9.320;2022-10-19T03:09:51;32.78;;;20.10;;
37069;SDS011;22984;48.862;9.320;2022-10-19T03:12:18;41.83;;;21.65;;
37069;SDS011;22984;48.862;9.320;2022-10-19T03:14:44;35.95;;;21.30;;
37069;SDS011;22984;48.862;9.320;2022-10-19T03:17:10;41.88;;;21.77;;
37069;SDS011;22984;48.862;9.320;2022-10-19T03:19:36;47.33;;;21.92;;
37069;SDS011;22984;48.862;9.320;2022-10-19T03:22:02;53.03;;;23.13;;
37069;SDS011;22984;48.862;9.320;2022-10-19T03:24:29;122.57;;;25.42;;
37069;SDS011;22984;48.862;9.320;2022-10-19T03:26:56;74.38;;;25.48;;
37069;SDS011;22984;48.862;9.320;2022-10-19T03:29:22;123.30;;;24.80;;
37069;SDS011;22984;48.862;9.320;2022-10-19T03:31:48;131.03;;;26.43;;
37069;SDS011;22984;48.862;9.320;2022-10-19T03:34:14;147.32;;;29.45;;
37069;SDS011;22984;48.862;9.320;2022-10-19T03:36:40;127.60;;;26.73;;
37069;SDS011;22984;48.862;9.320;2022-10-19T03:39:07;41.72;;;22.48;;
37069;SDS011;22984;48.862;9.320;2022-10-19T03:41:34;42.97;;;22.45;;
37069;SDS011;22984;48.862;9.320;2022-10-19T03:44:01;47.70;;;23.33;;
37069;SDS011;22984;48.862;9.320;2022-10-19T03:46:27;48.92;;;22.95;;
37069;SDS011;22984;48.862;9.320;2022-10-19T03:48:54;41.53;;;22.97;;
37069;SDS011;22984;48.862;9.320;2022-10-19T03:51:21;51.90;;;24.58;;
37069;SDS011;22984;48.862;9.320;2022-10-19T03:53:50;47.07;;;23.50;;
37069;SDS011;22984;48.862;9.320;2022-10-19T03:56:17;43.03;;;23.20;;
37069;SDS011;22984;48.862;9.320;2022-10-19T03:58:44;65.93;;;27.48;;
37069;SDS011;22984;48.862;9.320;2022-10-19T04:01:12;56.03;;;26.40;;
37069;SDS011;22984;48.862;9.320;2022-10-19T04:03:38;54.05;;;26.27;;
37069;SDS011;22984;48.862;9.320;2022-10-19T04:06:05;44.75;;;23.27;;
37069;SDS011;22984;48.862;9.320;2022-10-19T04:08:31;57.30;;;27.52;;
37069;SDS011;22984;48.862;9.320;2022-10-19T04:10:58;68.82;;;29.02;;
37069;SDS011;22984;48.862;9.320;2022-10-19T04:13:25;63.88;;;29.38;;
37069;SDS011;22984;48.862;9.320;2022-10-19T04:15:51;58.40;;;26.33;;
37069;SDS011;22984;48.862;9.320;2022-10-19T04:18:17;52.47;;;24.73;;
37069;SDS011;22984;48.862;9.320;2022-10-19T04:20:43;74.53;;;32.05;;
37069;SDS011;22984;48.862;9.320;2022-10-19T04:23:09;93.38;;;35.30;;
37069;SDS011;22984;48.862;9.320;2022-10-19T04:25:35;201.13;;;41.72;;
37069;SDS011;22984;48.862;9.320;2022-10-19T04:28:01;571.63;;;56.30;;
37069;SDS011;22984;48.862;9.320;2022-10-19T04:30:27;446.50;;;48.00;;
37069;SDS011;22984;48.862;9.320;2022-10-19T04:32:53;483.63;;;52.92;;
37069;SDS011;22984;48.862;9.320;2022-10-19T04:35:19;186.15;;;40.03;;
37069;SDS011;22984;48.862;9.320;2022-10-19T04:37:45;106.75;;;37.47;;
37069;SDS011;22984;48.862;9.320;2022-10-19T04:40:11;110.10;;;37.30;;
37069;SDS011;22984;48.862;9.320;2022-10-19T04:42:37;91.40;;;34.35;;
37069;SDS011;22984;48.862;9.320;2022-10-19T04:45:03;80.68;;;32.15;;
37069;SDS011;22984;48.862;9.320;2022-10-19T04:47:29;70.75;;;29.75;;
37069;SDS011;22984;48.862;9.320;2022-10-19T04:49:55;38.13;;;21.80;;
37069;SDS011;22984;48.862;9.320;2022-10-19T04:52:21;35.60;;;20.00;;
37069;SDS011;22984;48.862;9.320;2022-10-19T04:54:47;30.80;;;19.60;;
37069;SDS011;22984;48.862;9.320;2022-10-19T04:57:13;40.78;;;19.67;;
37069;SDS011;22984;48.862;9.320;2022-10-19T04:59:39;33.17;;;19.80;;
37069;SDS011;22984;48.862;9.320;2022-10-19T05:02:05;25.63;;;16.93;;
37069;SDS011;22984;48.862;9.320;2022-10-19T05:04:31;54.90;;;18.23;;
37069;SDS011;22984;48.862;9.320;2022-10-19T05:06:57;50.20;;;20.13;;
37069;SDS011;22984;48.862;9.320;2022-10-19T05:09:23;45.97;;;21.15;;
37069;SDS011;22984;48.862;9.320;2022-10-19T05:11:49;66.28;;;25.85;;
37069;SDS011;22984;48.862;9.320;2022-10-19T05:14:15;99.43;;;33.27;;
37069;SDS011;22984;48.862;9.320;2022-10-19T05:16:41;69.43;;;28.77;;
37069;SDS011;22984;48.862;9.320;2022-10-19T05:19:10;66.57;;;28.63;;
37069;SDS011;22984;48.862;9.320;2022-10-19T05:21:37;66.70;;;28.13;;
37069;SDS011;22984;48.862;9.320;2022-10-19T05:24:03;79.15;;;31.63;;
37069;SDS011;22984;48.862;9.320;2022-10-19T05:26:29;69.75;;;30.05;;
37069;SDS011;22984;48.862;9.320;2022-10-19T05:28:59;51.30;;;24.83;;
37069;SDS011;22984;48.862;9.320;2022-10-19T05:31:32;34.72;;;20.73;;
37069;SDS011;22984;48.862;9.320;2022-10-19T05:33:58;24.45;;;16.85;;
37069;SDS011;22984;48.862;9.320;2022-10-19T05:36:25;20.02;;;16.10;;
37069;SDS011;22984;48.862;9.320;2022-10-19T05:38:52;24.58;;;16.88;;
37069;SDS011;22984;48.862;9.320;2022-10-19T05:41:19;24.73;;;16.75;;
37069;SDS011;22984;48.862;9.320;2022-10-19T05:43:46;29.38;;;19.35;;
37069;SDS011;22984;48.862;9.320;2022-10-19T05:46:13;25.80;;;17.90;;
37069;SDS011;22984;48.862;9.320;2022-10-19T05:48:41;28.92;;;18.75;;
37069;SDS011;22984;48.862;9.320;2022-10-19T05:51:07;30.05;;;18.67;;
37069;SDS011;22984;48.862;9.320;2022-10-19T05:53:35;33.38;;;18.85;;
37069;SDS011;22984;48.862;9.320;2022-10-19T05:56:03;69.88;;;40.78;;
37069;SDS011;22984;48.862;9.320;2022-10-19T05:58:29;93.85;;;51.30;;
37069;SDS011;22984;48.862;9.320;2022-10-19T06:00:56;77.20;;;44.83;;
37069;SDS011;22984;48.862;9.320;2022-10-19T06:03:22;46.35;;;26.65;;
37069;SDS011;22984;48.862;9.320;2022-10-19T06:05:49;34.78;;;19.20;;
37069;SDS011;22984;48.862;9.320;2022-10-19T06:08:16;29.75;;;19.15;;
37069;SDS011;22984;48.862;9.320;2022-10-19T06:10:42;30.63;;;18.60;;
37069;SDS011;22984;48.862;9.320;2022-10-19T06:13:08;29.93;;;17.83;;
37069;SDS011;22984;48.862;9.320;2022-10-19T06:15:35;23.42;;;16.15;;
37069;SDS011;22984;48.862;9.320;2022-10-19T06:18:03;29.83;;;18.17;;
37069;SDS011;22984;48.862;9.320;2022-10-19T06:20:30;23.88;;;17.15;;
37069;SDS011;22984;48.862;9.320;2022-10-19T06:22:56;23.75;;;16.60;;
37069;SDS011;22984;48.862;9.320;2022-10-19T06:25:22;27.83;;;18.20;;
37069;SDS011;22984;48.862;9.320;2022-10-19T06:27:48;24.75;;;16.75;;
37069;SDS011;22984;48.862;9.320;2022-10-19T06:30:14;19.92;;;14.45;;
37069;SDS011;22984;48.862;9.320;2022-10-19T06:32:40;21.80;;;14.45;;
37069;SDS011;22984;48.862;9.320;2022-10-19T06:35:06;21.48;;;13.80;;
37069;SDS011;22984;48.862;9.320;2022-10-19T06:37:32;18.42;;;12.82;;
37069;SDS011;22984;48.862;9.320;2022-10-19T06:39:58;14.55;;;11.68;;
37069;SDS011;22984;48.862;9.320;2022-10-19T06:42:24;14.87;;;12.77;;
37069;SDS011;22984;48.862;9.320;2022-10-19T06:44:50;13.82;;;12.07;;
37069;SDS011;22984;48.862;9.320;2022-10-19T06:47:16;15.18;;;11.85;;
37069;SDS011;22984;48.862;9.320;2022-10-19T06:49:42;14.75;;;11.13;;
37069;SDS011;22984;48.862;9.320;2022-10-19T06:52:08;14.48;;;10.48;;
37069;SDS011;22984;48.862;9.320;2022-10-19T06:54:34;11.48;;;9.50;;
37069;SDS011;22984;48.862;9.320;2022-10-19T06:57:00;17.47;;;12.23;;
37069;SDS011;22984;48.862;9.320;2022-10-19T06:59:26;16.70;;;13.52;;
37069;SDS011;22984;48.862;9.320;2022-10-19T07:01:52;16.92;;;14.10;;
37069;SDS011;22984;48.862;9.320;2022-10-19T07:04:18;13.50;;;11.82;;
37069;SDS011;22984;48.862;9.320;2022-10-19T07:06:44;17.77;;;12.80;;
37069;SDS011;22984;48.862;9.320;2022-10-19T07:09:10;12.93;;;11.63;;
37069;SDS011;22984;48.862;9.320;2022-10-19T07:11:36;19.02;;;13.20;;
37069;SDS011;22984;48.862;9.320;2022-10-19T07:14:02;17.23;;;13.15;;
37069;SDS011;22984;48.862;9.320;2022-10-19T07:16:28;17.63;;;13.73;;
37069;SDS011;22984;48.862;9.320;2022-10-19T07:18:54;18.23;;;14.77;;
37069;SDS011;22984;48.862;9.320;2022-10-19T07:21:21;15.02;;;13.30;;
37069;SDS011;22984;48.862;9.320;2022-10-19T07:23:47;17.63;;;14.27;;
37069;SDS011;22984;48.862;9.320;2022-10-19T07:26:18;16.73;;;12.55;;
37069;SDS011;22984;48.862;9.320;2022-10-19T07:28:45;17.43;;;12.83;;
37069;SDS011;22984;48.862;9.320;2022-10-19T07:31:12;16.40;;;13.32;;
37069;SDS011;22984;48.862;9.320;2022-10-19T07:33:39;18.90;;;14.02;;
37069;SDS011;22984;48.862;9.320;2022-10-19T07:36:06;19.02;;;14.93;;
37069;SDS011;22984;48.862;9.320;2022-10-19T07:38:33;19.00;;;14.25;;
37069;SDS011;22984;48.862;9.320;2022-10-19T07:41:03;15.77;;;13.40;;
37069;SDS011;22984;48.862;9.320;2022-10-19T07:43:30;20.05;;;12.32;;
37069;SDS011;22984;48.862;9.320;2022-10-19T07:46:03;23.85;;;12.38;;
37069;SDS011;22984;48.862;9.320;2022-10-19T07:48:30;14.83;;;12.00;;
37069;SDS011;22984;48.862;9.320;2022-10-19T07:50:56;15.85;;;10.93;;
37069;SDS011;22984;48.862;9.320;2022-10-19T07:53:22;15.85;;;10.20;;
37069;SDS011;22984;48.862;9.320;2022-10-19T07:55:48;12.02;;;10.10;;
37069;SDS011;22984;48.862;9.320;2022-10-19T07:58:14;14.93;;;11.63;;
37069;SDS011;22984;48.862;9.320;2022-10-19T08:00:40;18.13;;;12.23;;
37069;SDS011;22984;48.862;9.320;2022-10-19T08:03:06;17.85;;;13.05;;
37069;SDS011;22984;48.862;9.320;2022-10-19T08:05:32;13.35;;;10.60;;
37069;SDS011;22984;48.862;9.320;2022-10-19T08:07:58;11.52;;;10.00;;
37069;SDS011;22984;48.862;9.320;2022-10-19T08:10:25;10.98;;;9.68;;
37069;SDS011;22984;48.862;9.320;2022-10-19T08:12:51;10.95;;;9.77;;
37069;SDS011;22984;48.862;9.320;2022-10-19T08:15:17;10.20;;;9.15;;
37069;SDS011;22984;48.862;9.320;2022-10-19T08:17:43;13.17;;;9.47;;
37069;SDS011;22984;48.862;9.320;2022-10-19T08:20:09;12.38;;;9.23;;
37069;SDS011;22984;48.862;9.320;2022-10-19T08:22:35;9.38;;;8.23;;
37069;SDS011;22984;48.862;9.320;2022-10-19T08:25:01;10.13;;;7.82;;
37069;SDS011;22984;48.862;9.320;2022-10-19T08:27:27;8.38;;;7.57;;
37069;SDS011;22984;48.862;9.320;2022-10-19T08:29:54;10.90;;;8.07;;
37069;SDS011;22984;48.862;9.320;2022-10-19T08:32:20;8.65;;;7.60;;
37069;SDS011;22984;48.862;9.320;2022-10-19T08:34:46;8.60;;;7.47;;
37069;SDS011;22984;48.862;9.320;2022-10-19T08:37:12;8.23;;;7.53;;
37069;SDS011;22984;48.862;9.320;2022-10-19T08:39:38;8.03;;;6.90;;
37069;SDS011;22984;48.862;9.320;2022-10-19T08:42:10;7.70;;;6.95;;
37069;SDS011;22984;48.862;9.320;2022-10-19T08:49:49;6.93;;;6.20;;
37069;SDS011;22984;48.862;9.320;2022-10-19T08:52:19;12.07;;;7.25;;
37069;SDS011;22984;48.862;9.320;2022-10-19T08:57:37;7.22;;;6.35;;
37069;SDS011;22984;48.862;9.320;2022-10-19T09:00:07;6.70;;;6.10;;
37069;SDS011;22984;48.862;9.320;2022-10-19T09:02:48;7.07;;;5.47;;
37069;SDS011;22984;48.862;9.320;2022-10-19T09:07:46;7.45;;;5.65;;
37069;SDS011;22984;48.862;9.320;2022-10-19T09:10:21;7.50;;;4.35;;
37069;SDS011;22984;48.862;9.320;2022-10-19T09:15:17;3.28;;;2.97;;
37069;SDS011;22984;48.862;9.320;2022-10-19T09:17:43;3.42;;;3.10;;
37069;SDS011;22984;48.862;9.320;2022-10-19T09:20:14;5.45;;;3.17;;
37069;SDS011;22984;48.862;9.320;2022-10-19T09:22:41;3.55;;;2.90;;
37069;SDS011;22984;48.862;9.320;2022-10-19T09:25:12;3.10;;;2.88;;
37069;SDS011;22984;48.862;9.320;2022-10-19T09:27:39;3.00;;;2.70;;
37069;SDS011;22984;48.862;9.320;2022-10-19T09:30:09;3.85;;;3.22;;
37069;SDS011;22984;48.862;9.320;2022-10-19T09:32:39;2.90;;;2.70;;
37069;SDS011;22984;48.862;9.320;2022-10-19T09:38:06;3.03;;;2.30;;
37069;SDS011;22984;48.862;9.320;2022-10-19T09:40:33;4.03;;;3.15;;
37069;SDS011;22984;48.862;9.320;2022-10-19T09:42:59;5.88;;;3.97;;
37069;SDS011;22984;48.862;9.320;2022-10-19T09:51:00;2.88;;;2.45;;
37069;SDS011;22984;48.862;9.320;2022-10-19T09:53:27;5.30;;;2.38;;
37069;SDS011;22984;48.862;9.320;2022-10-19T09:55:57;2.63;;;2.20;;
37069;SDS011;22984;48.862;9.320;2022-10-19T09:58:25;3.88;;;2.08;;
37069;SDS011;22984;48.862;9.320;2022-10-19T10:00:52;3.30;;;2.10;;
37069;SDS011;22984;48.862;9.320;2022-10-19T10:05:48;3.23;;;2.27;;
37069;SDS011;22984;48.862;9.320;2022-10-19T10:08:16;2.47;;;2.28;;
37069;SDS011;22984;48.862;9.320;2022-10-19T10:10:44;3.65;;;2.17;;
37069;SDS011;22984;48.862;9.320;2022-10-19T10:13:15;2.25;;;2.05;;
37069;SDS011;22984;48.862;9.320;2022-10-19T10:15:42;4.33;;;2.37;;
37069;SDS011;22984;48.862;9.320;2022-10-19T10:18:12;5.47;;;2.20;;
37069;SDS011;22984;48.862;9.320;2022-10-19T10:20:41;3.95;;;2.13;;
37069;SDS011;22984;48.862;9.320;2022-10-19T10:23:22;2.40;;;2.20;;
37069;SDS011;22984;48.862;9.320;2022-10-19T10:25:48;3.22;;;2.85;;
37069;SDS011;22984;48.862;9.320;2022-10-19T10:28:16;2.42;;;2.22;;
37069;SDS011;22984;48.862;9.320;2022-10-19T10:30:43;2.00;;;1.90;;
37069;SDS011;22984;48.862;9.320;2022-10-19T10:33:13;2.80;;;2.60;;
37069;SDS011;22984;48.862;9.320;2022-10-19T10:35:40;3.15;;;2.85;;
37069;SDS011;22984;48.862;9.320;2022-10-19T10:38:22;4.07;;;2.10;;
37069;SDS011;22984;48.862;9.320;2022-10-19T10:40:52;2.95;;;2.63;;
37069;SDS011;22984;48.862;9.320;2022-10-19T10:43:19;3.22;;;2.38;;
37069;SDS011;22984;48.862;9.320;2022-10-19T10:45:49;3.60;;;2.70;;
37069;SDS011;22984;48.862;9.320;2022-10-19T10:48:26;2.80;;;2.60;;
37069;SDS011;22984;48.862;9.320;2022-10-19T10:50:52;3.20;;;2.42;;
37069;SDS011;22984;48.862;9.320;2022-10-19T10:55:59;3.50;;;2.80;;
37069;SDS011;22984;48.862;9.320;2022-10-19T11:00:56;2.38;;;2.28;;
37069;SDS011;22984;48.862;9.320;2022-10-19T11:03:24;2.50;;;1.85;;
37069;SDS011;22984;48.862;9.320;2022-10-19T11:05:57;2.70;;;2.50;;
37069;SDS011;22984;48.862;9.320;2022-10-19T11:08:25;3.28;;;2.97;;
37069;SDS011;22984;48.862;9.320;2022-10-19T11:15:54;5.18;;;1.60;;
37069;SDS011;22984;48.862;9.320;2022-10-19T11:18:31;3.22;;;1.80;;
37069;SDS011;22984;48.862;9.320;2022-10-19T11:21:13;3.83;;;1.93;;
37069;SDS011;22984;48.862;9.320;2022-10-19T11:26:45;3.17;;;1.33;;
37069;SDS011;22984;48.862;9.320;2022-10-19T11:32:15;1.52;;;1.10;;
37069;SDS011;22984;48.862;9.320;2022-10-19T11:37:42;1.73;;;1.25;;
37069;SDS011;22984;48.862;9.320;2022-10-19T11:40:14;2.25;;;1.02;;
37069;SDS011;22984;48.862;9.320;2022-10-19T11:47:52;2.47;;;1.00;;
37069;SDS011;22984;48.862;9.320;2022-10-19T11:50:59;4.07;;;1.00;;
37069;SDS011;22984;48.862;9.320;2022-10-19T12:07:10;3.30;;;1.30;;
37069;SDS011;22984;48.862;9.320;2022-10-19T12:12:29;2.83;;;1.70;;
37069;SDS011;22984;48.862;9.320;2022-10-19T12:17:43;4.70;;;1.60;;
37069;SDS011;22984;48.862;9.320;2022-10-19T12:20:16;4.80;;;2.55;;
37069;SDS011;22984;48.862;9.320;2022-10-19T12:22:44;2.20;;;1.67;;
37069;SDS011;22984;48.862;9.320;2022-10-19T12:25:11;1.63;;;1.53;;
37069;SDS011;22984;48.862;9.320;2022-10-19T12:27:38;3.95;;;2.35;;
37069;SDS011;22984;48.862;9.320;2022-10-19T12:30:06;2.40;;;1.85;;
37069;SDS011;22984;48.862;9.320;2022-10-19T12:32:36;3.50;;;2.70;;
37069;SDS011;22984;48.862;9.320;2022-10-19T12:37:34;2.50;;;1.85;;
37069;SDS011;22984;48.862;9.320;2022-10-19T12:42:37;3.08;;;2.20;;
37069;SDS011;22984;48.862;9.320;2022-10-19T12:50:57;3.80;;;2.63;;
37069;SDS011;22984;48.862;9.320;2022-10-19T12:53:23;2.90;;;2.58;;
37069;SDS011;22984;48.862;9.320;2022-10-19T12:55:59;4.03;;;2.10;;
37069;SDS011;22984;48.862;9.320;2022-10-19T12:58:26;3.30;;;2.20;;
37069;SDS011;22984;48.862;9.320;2022-10-19T13:00:59;4.13;;;2.30;;
37069;SDS011;22984;48.862;9.320;2022-10-19T13:03:27;2.90;;;2.00;;
37069;SDS011;22984;48.862;9.320;2022-10-19T13:05:59;2.60;;;2.30;;
37069;SDS011;22984;48.862;9.320;2022-10-19T13:08:32;3.30;;;2.28;;
37069;SDS011;22984;48.862;9.320;2022-10-19T13:11:05;2.23;;;2.00;;
37069;SDS011;22984;48.862;9.320;2022-10-19T13:24:18;2.72;;;1.60;;
37069;SDS011;22984;48.862;9.320;2022-10-19T13:26:45;4.40;;;2.00;;
37069;SDS011;22984;48.862;9.320;2022-10-19T13:29:23;1.92;;;1.73;;
37069;SDS011;22984;48.862;9.320;2022-10-19T13:31:49;2.30;;;1.70;;
37069;SDS011;22984;48.862;9.320;2022-10-19T13:34:16;2.92;;;1.48;;
37069;SDS011;22984;48.862;9.320;2022-10-19T13:37:01;2.38;;;1.75;;
37069;SDS011;22984;48.862;9.320;2022-10-19T13:39:27;2.38;;;1.60;;
37069;SDS011;22984;48.862;9.320;2022-10-19T13:41:54;2.23;;;1.50;;
37069;SDS011;22984;48.862;9.320;2022-10-19T13:44:24;3.63;;;1.30;;
37069;SDS011;22984;48.862;9.320;2022-10-19T13:47:04;7.35;;;1.67;;
37069;SDS011;22984;48.862;9.320;2022-10-19T14:04:56;2.30;;;1.35;;
37069;SDS011;22984;48.862;9.320;2022-10-19T14:07:29;6.18;;;1.65;;
37069;SDS011;22984;48.862;9.320;2022-10-19T14:10:17;5.80;;;1.42;;
37069;SDS011;22984;48.862;9.320;2022-10-19T14:12:44;2.80;;;1.50;;
37069;SDS011;22984;48.862;9.320;2022-10-19T14:17:43;1.45;;;1.35;;
37069;SDS011;22984;48.862;9.320;2022-10-19T14:23:17;7.10;;;2.03;;
37069;SDS011;22984;48.862;9.320;2022-10-19T14:25:48;3.20;;;1.50;;
37069;SDS011;22984;48.862;9.320;2022-10-19T14:28:15;3.05;;;1.83;;
37069;SDS011;22984;48.862;9.320;2022-10-19T14:30:41;1.90;;;1.80;;
37069;SDS011;22984;48.862;9.320;2022-10-19T14:33:10;1.85;;;1.75;;
37069;SDS011;22984;48.862;9.320;2022-10-19T14:35:39;1.83;;;1.33;;
37069;SDS011;22984;48.862;9.320;2022-10-19T14:38:07;2.60;;;1.58;;
37069;SDS011;22984;48.862;9.320;2022-10-19T14:40:40;5.57;;;1.50;;
37069;SDS011;22984;48.862;9.320;2022-10-19T14:46:02;2.40;;;1.30;;
37069;SDS011;22984;48.862;9.320;2022-10-19T14:48:28;2.00;;;1.45;;
37069;SDS011;22984;48.862;9.320;2022-10-19T14:50:55;5.50;;;1.35;;
37069;SDS011;22984;48.862;9.320;2022-10-19T14:56:05;2.90;;;1.80;;
37069;SDS011;22984;48.862;9.320;2022-10-19T14:58:35;8.27;;;1.63;;
37069;SDS011;22984;48.862;9.320;2022-10-19T15:01:03;1.80;;;1.70;;
37069;SDS011;22984;48.862;9.320;2022-10-19T15:03:29;4.10;;;1.80;;
37069;SDS011;22984;48.862;9.320;2022-10-19T15:06:00;6.88;;;1.80;;
37069;SDS011;22984;48.862;9.320;2022-10-19T15:08:40;1.98;;;1.88;;
37069;SDS011;22984;48.862;9.320;2022-10-19T15:11:08;2.80;;;1.70;;
37069;SDS011;22984;48.862;9.320;2022-10-19T15:13:44;4.15;;;2.20;;
37069;SDS011;22984;48.862;9.320;2022-10-19T15:16:31;3.40;;;2.20;;
37069;SDS011;22984;48.862;9.320;2022-10-19T15:19:03;4.20;;;2.10;;
37069;SDS011;22984;48.862;9.320;2022-10-19T15:21:29;4.00;;;2.20;;
37069;SDS011;22984;48.862;9.320;2022-10-19T15:24:04;4.28;;;2.00;;
37069;SDS011;22984;48.862;9.320;2022-10-19T15:26:30;2.95;;;1.80;;
37069;SDS011;22984;48.862;9.320;2022-10-19T15:29:09;2.53;;;2.08;;
37069;SDS011;22984;48.862;9.320;2022-10-19T15:31:43;3.05;;;2.05;;
37069;SDS011;22984;48.862;9.320;2022-10-19T15:34:19;3.85;;;2.15;;
37069;SDS011;22984;48.862;9.320;2022-10-19T15:36:57;6.25;;;2.10;;
37069;SDS011;22984;48.862;9.320;2022-10-19T15:39:33;7.18;;;2.17;;
37069;SDS011;22984;48.862;9.320;2022-10-19T15:44:45;3.70;;;2.25;;
37069;SDS011;22984;48.862;9.320;2022-10-19T15:47:21;5.72;;;2.60;;
37069;SDS011;22984;48.862;9.320;2022-10-19T15:49:52;5.95;;;2.90;;
37069;SDS011;22984;48.862;9.320;2022-10-19T15:52:23;4.47;;;2.55;;
37069;SDS011;22984;48.862;9.320;2022-10-19T15:54:50;9.88;;;4.03;;
37069;SDS011;22984;48.862;9.320;2022-10-19T15:57:28;5.90;;;3.30;;
37069;SDS011;22984;48.862;9.320;2022-10-19T15:59:54;10.07;;;5.75;;
37069;SDS011;22984;48.862;9.320;2022-10-19T16:02:21;7.53;;;6.32;;
37069;SDS011;22984;48.862;9.320;2022-10-19T16:04:49;8.95;;;6.65;;
37069;SDS011;22984;48.862;9.320;2022-10-19T16:07:17;9.43;;;6.95;;
37069;SDS011;22984;48.862;9.320;2022-10-19T16:09:44;7.70;;;7.00;;
37069;SDS011;22984;48.862;9.320;2022-10-19T16:12:10;11.25;;;7.30;;
37069;SDS011;22984;48.862;9.320;2022-10-19T16:14:36;8.90;;;7.18;;
37069;SDS011;22984;48.862;9.320;2022-10-19T16:17:03;8.02;;;6.95;;
37069;SDS011;22984;48.862;9.320;2022-10-19T16:19:29;10.67;;;6.67;;
37069;SDS011;22984;48.862;9.320;2022-10-19T16:21:55;8.37;;;5.70;;
37069;SDS011;22984;48.862;9.320;2022-10-19T16:24:21;8.73;;;5.95;;
37069;SDS011;22984;48.862;9.320;2022-10-19T16:26:47;6.13;;;5.53;;
37069;SDS011;22984;48.862;9.320;2022-10-19T16:29:13;7.78;;;4.90;;
37069;SDS011;22984;48.862;9.320;2022-10-19T16:31:39;4.72;;;4.43;;
37069;SDS011;22984;48.862;9.320;2022-10-19T16:34:05;5.28;;;4.82;;
37069;SDS011;22984;48.862;9.320;2022-10-19T16:36:31;5.70;;;4.88;;
37069;SDS011;22984;48.862;9.320;2022-10-19T16:38:58;4.85;;;4.50;;
37069;SDS011;22984;48.862;9.320;2022-10-19T16:41:25;5.60;;;4.70;;
37069;SDS011;22984;48.862;9.320;2022-10-19T16:43:54;7.32;;;4.97;;
37069;SDS011;22984;48.862;9.320;2022-10-19T16:46:21;7.85;;;4.85;;
37069;SDS011;22984;48.862;9.320;2022-10-19T16:48:47;5.82;;;5.03;;
37069;SDS011;22984;48.862;9.320;2022-10-19T16:51:18;7.25;;;4.75;;
37069;SDS011;22984;48.862;9.320;2022-10-19T16:53:44;5.03;;;4.53;;
37069;SDS011;22984;48.862;9.320;2022-10-19T16:56:11;7.90;;;5.40;;
37069;SDS011;22984;48.862;9.320;2022-10-19T16:58:38;5.47;;;5.07;;
37069;SDS011;22984;48.862;9.320;2022-10-19T17:01:37;5.60;;;5.20;;